createdAt,value
2023-04-19T00:12:53.318Z,0.8
2023-04-19T00:27:49.861Z,0.28
2023-04-19T00:42:45.268Z,0.24
2023-04-19T00:57:41.164Z,0
2023-04-19T01:12:37.091Z,0
2023-04-19T01:27:33.116Z,0
2023-04-19T01:42:28.833Z,0
2023-04-19T01:57:24.847Z,0
2023-04-19T02:12:20.614Z,0
2023-04-19T02:27:16.300Z,0
2023-04-19T02:42:12.194Z,0
2023-04-19T02:57:08.204Z,0
2023-04-19T03:12:04.434Z,0
2023-04-19T03:27:00.468Z,0
2023-04-19T03:41:56.903Z,0
2023-04-19T03:56:53.264Z,0
2023-04-19T04:11:49.492Z,0
2023-04-19T04:26:45.235Z,0
2023-04-19T04:41:41.572Z,0
2023-04-19T04:56:37.927Z,0
2023-04-19T05:11:34.015Z,0
2023-04-19T05:26:30.487Z,0
2023-04-19T05:41:26.771Z,0
2023-04-19T05:56:23.369Z,0
2023-04-19T06:11:24.841Z,0
2023-04-19T06:26:16.702Z,0
2023-04-19T06:41:13.207Z,0
2023-04-19T06:56:09.510Z,0
2023-04-19T07:11:06.519Z,0
2023-04-19T07:26:03.536Z,0
2023-04-19T07:40:59.949Z,0
2023-04-19T07:55:56.477Z,0
2023-04-19T08:10:52.981Z,1.4
2023-04-19T08:25:49.628Z,1.24
2023-04-19T08:40:46.866Z,0.36
2023-04-19T08:55:55.144Z,0.16
2023-04-19T09:10:40.296Z,0.2
2023-04-19T09:25:52.769Z,0.64
2023-04-19T09:40:32.805Z,0
2023-04-19T09:55:31.669Z,0.72
2023-04-19T10:10:40.198Z,1.07
2023-04-19T10:25:22.859Z,1.36
2023-04-19T10:40:19.027Z,2.15
2023-04-19T10:55:15.323Z,0.8
2023-04-19T11:10:12.306Z,1.71
2023-04-19T11:25:08.638Z,0.64
2023-04-19T11:40:05.459Z,1.8
2023-04-19T11:55:01.881Z,0.48
2023-04-19T12:09:58.286Z,0.91
2023-04-19T12:24:55.190Z,2.11
2023-04-19T12:39:51.957Z,1.12
2023-04-19T12:54:48.009Z,1.52
2023-04-19T13:09:43.443Z,1.76
2023-04-19T13:24:39.485Z,0.91
2023-04-19T13:39:35.285Z,0.16
2023-04-19T13:54:31.411Z,3.43
2023-04-19T14:09:27.593Z,1.83
2023-04-19T14:24:23.957Z,2.24
2023-04-19T14:39:19.849Z,0.48
2023-04-19T14:54:15.870Z,2
2023-04-19T15:09:12.190Z,2.88
2023-04-19T15:24:08.370Z,2.52
2023-04-19T15:39:04.742Z,1.07
2023-04-19T15:54:00.664Z,2.88
2023-04-19T16:08:56.699Z,2.2
2023-04-19T16:23:53.382Z,1.71
2023-04-19T16:38:49.449Z,1.83
2023-04-19T16:53:46.200Z,2.4
2023-04-19T17:08:41.702Z,2.2
2023-04-19T17:23:37.767Z,1.88
2023-04-19T17:38:33.310Z,1.96
2023-04-19T17:53:28.940Z,2.32
2023-04-19T18:08:25.003Z,0
2023-04-19T18:23:20.917Z,1.16
2023-04-19T18:38:16.682Z,1.56
2023-04-19T18:53:12.240Z,0
2023-04-19T19:08:08.426Z,0
2023-04-19T19:23:03.756Z,0.28
2023-04-19T19:37:59.771Z,0
2023-04-19T19:52:55.614Z,0
2023-04-19T20:22:48.005Z,0
2023-04-19T20:37:44.345Z,0
2023-04-19T20:52:40.339Z,0
2023-04-19T21:07:36.376Z,0
2023-04-19T21:22:32.354Z,0
2023-04-19T21:37:28.192Z,0
2023-04-19T21:52:23.893Z,0
2023-04-19T22:07:19.376Z,0
2023-04-19T22:22:15.443Z,0
2023-04-19T22:37:11.420Z,0
2023-04-19T22:52:07.355Z,0
2023-04-19T23:07:03.228Z,0
2023-04-19T23:21:59.452Z,0
2023-04-19T23:36:55.657Z,0
2023-04-19T23:51:51.924Z,0
